Data for 05/22/2006

Time Sea-Level Adjusted Pressure Absolute Pressure Temperature Relative Humidity Dew Point   
(mb) (inHg) (mb) (inHg) (C) (F) (%) (C) (F)
00:05 1013 29.91 842 24.86 15.9 60.6 42 3.1 37.6
00:10 1013 29.91 842 24.86 15.6 60.1 41 2.5 36.6
00:15 1013 29.91 842 24.86 14.9 58.8 42 2.1 35.9
00:20 1013 29.91 842 24.86 14.8 58.6 43 2.3 36.1
00:25 1013 29.91 842 24.86 14.7 58.4 41 1.8 35.3
00:30 1013 29.91 842 24.86 14.8 58.7 43 2.6 36.6
00:35 1013 29.91 842 24.86 14.9 58.8 40 1.5 34.6
00:40 1013 29.91 842 24.86 15.1 59.1 40 1.6 34.9
00:45 1013 29.91 842 24.86 15.2 59.3 40 1.6 34.9
00:50 1013 29.91 842 24.86 15.6 60.1 37 1.2 34.2
00:55 1013 29.91 842 24.86 15.7 60.2 37 1.1 34.1
01:00 1013 29.91 842 24.86 15.4 59.7 40 2 35.7
01:05 1013 29.91 842 24.86 15.4 59.6 41 2.1 35.8
01:10 1013 29.91 842 24.86 15.7 60.3 36 0.7 33.3
01:15 1013 29.91 842 24.86 15.3 59.6 42 2.6 36.7
01:20 1013 29.91 842 24.86 14.8 58.7 38 0.8 33.5
01:25 1013 29.91 842 24.86 15.1 59.2 40 1.8 35.2
01:30 1013 29.91 842 24.86 14.9 58.9 40 1.7 35
01:35 1013 29.91 842 24.86 14.8 58.6 41 1.8 35.3
01:40 1013 29.91 842 24.86 14.7 58.5 42 1.9 35.5
01:45 1013 29.91 842 24.86 14.3 57.7 45 2.4 36.3
01:50 1013 29.91 842 24.86 13.6 56.5 49 3.2 37.8
01:55 1013 29.91 842 24.86 13.3 56 46 2 35.6
02:00 1013 29.91 842 24.86 13.6 56.6 46 2.2 35.9
02:05 1013 29.91 842 24.86 13.8 56.9 46 2.6 36.7
02:10 1013 29.91 842 24.86 13.2 55.8 48 2.5 36.4
02:15 1013 29.91 842 24.86 13.4 56.1 46 2.2 35.9
02:20 1013 29.91 842 24.86 13.4 56.2 46 2.3 36.1
02:25 1013 29.91 842 24.86 13.6 56.5 44 1.7 35.1
02:30 1013 29.91 842 24.86 14 57.1 45 2.3 36.1
02:35 1013 29.91 842 24.86 13.8 56.9 45 2.2 36
02:40 1013 29.91 842 24.86 13.7 56.6 46 2.3 36.1
02:45 1013 29.91 842 24.86 14.2 57.6 41 1.4 34.4
02:50 1013 29.91 842 24.86 14.6 58.2 42 2 35.5
02:55 1013 29.91 842 24.86 14.3 57.7 43 2.1 35.8
03:00 1013 29.91 842 24.86 14 57.3 45 2.4 36.4
03:05 1013 29.91 842 24.86 13.7 56.6 47 2.7 36.8
03:10 1013 29.91 842 24.86 13.2 55.7 51 3.4 38.1
03:15 1013 29.91 842 24.86 12.5 54.6 52 3.1 37.6
03:20 1013 29.91 842 24.86 12.5 54.4 52 3 37.3
03:25 1013 29.91 842 24.86 12.5 54.6 51 2.8 37
03:30 1013 29.91 842 24.86 12.8 55.1 49 2.5 36.5
03:35 1013 29.91 842 24.86 13.3 55.9 48 2.7 36.8
03:40 1013 29.91 842 24.86 13.3 55.9 49 2.7 36.9
03:45 1013 29.91 842 24.86 13.4 56.2 48 2.7 36.8
03:50 1013 29.91 842 24.86 13.9 57 45 2.3 36.1
03:55 1013 29.91 842 24.86 14.2 57.6 44 2.3 36.2
04:00 1013 29.91 842 24.86 14.1 57.4 44 2.1 35.9
04:05 1012 29.88 842 24.86 14.2 57.5 43 1.9 35.5
04:10 1013 29.91 842 24.86 14.2 57.5 45 2.6 36.6
04:15 1013 29.91 842 24.86 14.1 57.4 44 2.2 36
04:20 1012 29.88 842 24.86 14.1 57.5 45 2.6 36.7
04:25 1012 29.88 842 24.86 13.8 56.9 47 2.9 37.2
04:30 1012 29.88 842 24.86 13.8 56.8 45 2.2 36
04:35 1012 29.88 842 24.86 14.1 57.3 46 2.7 36.8
04:40 1012 29.88 842 24.86 14.2 57.5 43 1.8 35.3
04:45 1012 29.88 841 24.83 14.4 57.8 46 3.1 37.5
04:50 1012 29.88 841 24.83 14.1 57.4 43 2 35.5
04:55 1012 29.88 841 24.83 14.5 58.1 43 2.2 35.9
05:00 1012 29.88 841 24.83 14.4 57.8 47 3.2 37.8
05:05 1012 29.88 841 24.83 14 57.2 49 3.5 38.3
05:10 1012 29.88 841 24.83 13.6 56.4 49 3.1 37.6
05:15 1012 29.88 841 24.83 13.6 56.4 49 3.1 37.5
05:20 1012 29.88 841 24.83 13.9 56.9 47 2.8 37.1
05:25 1012 29.88 842 24.86 14 57.1 46 2.7 36.8
05:30 1012 29.88 841 24.83 13.9 56.9 48 3.2 37.7
05:35 1012 29.88 841 24.83 13.4 56 51 3.4 38.1
05:40 1012 29.88 841 24.83 13.2 55.8 50 3 37.5
05:45 1012 29.88 841 24.83 13.2 55.8 50 3.1 37.6
05:50 1012 29.88 841 24.83 13.9 57.1 45 2.3 36.1
05:55 1012 29.88 841 24.83 14 57.2 47 2.9 37.2
06:00 1012 29.88 841 24.83 13.9 57 46 2.6 36.6
06:05 1012 29.88 841 24.83 13.3 55.9 52 3.7 38.7
06:10 1012 29.88 841 24.83 13 55.3 50 2.9 37.3
06:15 1012 29.88 841 24.83 13.1 55.6 50 3 37.5
06:20 1012 29.88 841 24.83 13.1 55.6 51 3.2 37.8
06:25 1012 29.88 841 24.83 12.9 55.2 51 3 37.4
06:30 1012 29.88 841 24.83 13.1 55.7 50 3.1 37.5
06:35 1012 29.88 841 24.83 13.1 55.6 52 3.5 38.3
06:40 1012 29.88 841 24.83 12.7 54.9 55 4 39.2
06:45 1012 29.88 841 24.83 12.8 55 50 2.8 37
06:50 1012 29.88 841 24.83 13.3 55.9 50 3.1 37.6
06:55 1012 29.88 841 24.83 13.4 56 50 3.4 38
07:00 1012 29.88 841 24.83 13.4 56 51 3.6 38.5
07:05 1012 29.88 841 24.83 13.5 56.3 51 3.7 38.7
07:10 1012 29.88 841 24.83 13.6 56.4 50 3.4 38.1
07:15 1012 29.88 841 24.83 13.9 57 49 3.6 38.4
07:20 1012 29.88 841 24.83 14.1 57.4 48 3.4 38.2
07:25 1012 29.88 841 24.83 14.3 57.7 48 3.6 38.4
07:30 1012 29.88 841 24.83 14.5 58 47 3.5 38.4
07:35 1012 29.88 841 24.83 14.7 58.4 47 3.4 38.2
07:40 1012 29.88 841 24.83 14.8 58.7 47 3.6 38.5
07:45 1012 29.88 841 24.83 14.9 58.8 46 3.4 38.2
07:50 1012 29.88 841 24.83 15.2 59.3 45 3.6 38.4
07:55 1012 29.88 841 24.83 15.5 59.9 45 3.6 38.5
08:00 1012 29.88 841 24.83 15.7 60.3 44 3.8 38.8
08:05 1012 29.88 841 24.83 15.7 60.3 46 4.3 39.7
08:10 1012 29.88 841 24.83 15.6 60.1 47 4.4 39.9
08:15 1012 29.88 841 24.83 15.7 60.3 47 4.7 40.4
08:20 1012 29.88 841 24.83 15.7 60.3 48 4.7 40.5
08:25 1012 29.88 841 24.83 15.8 60.5 47 4.6 40.2
08:30 1011 29.85 841 24.83 16 60.8 47 4.9 40.8
08:35 1011 29.85 841 24.83 16.2 61.2 46 4.7 40.4
08:40 1011 29.85 841 24.83 16.4 61.5 46 4.9 40.9
08:45 1011 29.85 841 24.83 16.6 62 45 4.6 40.4
08:50 1011 29.85 840 24.81 16.8 62.2 44 4.7 40.4
08:55 1011 29.85 841 24.83 17.1 62.7 44 4.7 40.5
09:00 1011 29.85 840 24.81 17.7 63.9 42 4.8 40.7
09:05 1011 29.85 840 24.81 18.1 64.5 41 4.7 40.5
09:10 1011 29.85 840 24.81 18.1 64.5 41 4.8 40.7
09:15 1011 29.85 840 24.81 18.5 65.3 39 4.6 40.3
09:20 1011 29.85 840 24.81 19 66.1 37 4.2 39.6
09:25 1011 29.85 840 24.81 19.1 66.4 37 4.3 39.8
09:30 1011 29.85 840 24.81 19.4 66.9 38 4.9 40.9
09:35 1011 29.85 840 24.81 19.9 67.8 37 4.9 40.9
09:40 1011 29.85 840 24.81 20 67.9 36 4.6 40.3
09:45 1011 29.85 840 24.81 20.4 68.8 37 5.3 41.5
09:50 1011 29.85 840 24.81 20.7 69.2 35 4.7 40.5
09:55 1011 29.85 840 24.81 20.9 69.6 34 4.7 40.4
10:00 1011 29.85 840 24.81 21.2 70.2 32 4.2 39.5
10:05 1011 29.85 840 24.81 21.3 70.3 37 6 42.8
10:10 1011 29.85 840 24.81 20.9 69.5 37 5.8 42.4
10:15 1011 29.85 840 24.81 21.4 70.5 34 5 40.9
10:20 1011 29.85 840 24.81 20.6 69.1 37 5.5 41.9
10:25 1010 29.83 840 24.81 20.8 69.4 34 4.7 40.4
10:30 1010 29.83 840 24.81 21.1 70 33 4.6 40.2
10:35 1010 29.83 839 24.78 21.2 70.2 33 4.4 39.9
10:40 1010 29.83 839 24.78 21.3 70.4 33 4.6 40.2
10:45 1010 29.83 839 24.78 21.5 70.8 32 4.2 39.6
10:50 1010 29.83 839 24.78 22.2 72 31 4.7 40.4
10:55 1010 29.83 839 24.78 22.3 72.2 29 3.5 38.3
11:00 1010 29.83 839 24.78 22 71.5 30 3.7 38.7
11:05 1010 29.83 839 24.78 21.8 71.2 31 3.9 39.1
11:10 1010 29.83 839 24.78 21.8 71.2 30 3.8 38.8
11:15 1010 29.83 839 24.78 22 71.6 31 4.2 39.6
11:20 1010 29.83 839 24.78 22.2 72 30 4.1 39.3
11:25 1010 29.83 839 24.78 22.2 71.9 30 4 39.2
11:30 1010 29.83 839 24.78 22.4 72.2 30 4.1 39.3
11:35 1010 29.83 839 24.78 22.4 72.3 30 4.2 39.6
11:40 1010 29.83 839 24.78 22.3 72.1 34 5.9 42.6
11:45 1010 29.83 839 24.78 21.8 71.2 35 5.8 42.5
11:50 1010 29.83 839 24.78 22 71.6 32 4.9 40.8
11:55 1010 29.83 839 24.78 22.2 72 39 7.9 46.2
12:00 1010 29.83 839 24.78 21.4 70.5 40 7.5 45.6
12:05 1010 29.83 839 24.78 21.6 70.8 38 6.8 44.3
12:10 1010 29.83 839 24.78 22.1 71.7 35 5.9 42.6
12:15 1010 29.83 839 24.78 23.2 73.8 27 3.3 38
12:20 1010 29.83 839 24.78 23.4 74.2 26 3.2 37.7
12:25 1010 29.83 839 24.78 23.3 74 33 6.4 43.5
12:30 1010 29.83 839 24.78 23.1 73.5 34 6.4 43.6
12:35 1009 29.8 839 24.78 23.1 73.7 33 6 42.8
12:40 1009 29.8 839 24.78 22.9 73.3 33 6 42.9
12:45 1009 29.8 839 24.78 23.7 74.7 29 4.9 40.8
12:50 1009 29.8 839 24.78 23.8 74.9 30 5.4 41.7
12:55 1009 29.8 839 24.78 23.8 74.8 36 7.8 46.1
13:00 1009 29.8 838 24.75 22.9 73.2 38 8.1 46.5
13:05 1009 29.8 839 24.78 23 73.4 37 7.8 46
13:10 1009 29.8 839 24.78 22.7 72.9 39 8.3 47
13:15 1009 29.8 839 24.78 22.1 71.8 38 7.3 45.1
13:20 1009 29.8 839 24.78 22.4 72.2 36 6.7 44.1
13:25 1009 29.8 839 24.78 22.4 72.3 38 7.6 45.7
13:30 1009 29.8 839 24.78 22.7 72.8 36 7.1 44.7
13:35 1009 29.8 838 24.75 22.8 73 38 8 46.3
13:40 1009 29.8 838 24.75 22.4 72.3 39 8 46.4
13:45 1009 29.8 838 24.75 22.4 72.3 39 7.9 46.2
13:50 1009 29.8 838 24.75 22.6 72.6 38 7.6 45.8
13:55 1009 29.8 838 24.75 22.8 73 36 7.3 45.1
14:00 1009 29.8 838 24.75 22 71.6 39 7.7 45.9
14:05 1009 29.8 838 24.75 21.6 70.9 38 6.8 44.2
14:10 1009 29.8 838 24.75 21.7 71.1 37 6.6 43.9
14:15 1009 29.8 838 24.75 21.7 71.1 36 6 42.9
14:20 1009 29.8 839 24.78 21.8 71.3 36 6.1 42.9
14:25 1009 29.8 839 24.78 21.8 71.3 36 6.1 43
14:30 1009 29.8 838 24.75 21.8 71.3 35 6 42.8
14:35 1009 29.8 838 24.75 22.3 72.1 34 6.1 42.9
14:40 1009 29.8 838 24.75 22.7 72.8 34 6.3 43.3
14:45 1009 29.8 838 24.75 22.9 73.1 33 6.1 43
14:50 1009 29.8 838 24.75 22.4 72.2 35 6.2 43.2
14:55 1009 29.8 838 24.75 21.4 70.5 37 6.5 43.6
15:00 1009 29.8 838 24.75 21.3 70.3 36 5.6 42.1
15:05 1009 29.8 838 24.75 21.1 70 37 6.2 43.1
15:10 1009 29.8 838 24.75 21.2 70.1 37 6 42.8
15:15 1009 29.8 838 24.75 21.2 70.2 36 5.8 42.4
15:20 1009 29.8 838 24.75 21.4 70.5 36 5.9 42.6
15:25 1009 29.8 838 24.75 21.2 70.2 37 6.3 43.3
15:30 1009 29.8 838 24.75 20.6 69.2 40 6.7 44
15:35 1009 29.8 838 24.75 20.5 68.8 39 6.3 43.4
15:40 1009 29.8 838 24.75 20.7 69.3 39 6.4 43.5
15:45 1009 29.8 838 24.75 21.3 70.3 38 6.6 43.8
15:50 1009 29.8 838 24.75 21.4 70.5 39 6.9 44.4
15:55 1009 29.8 838 24.75 21.5 70.7 40 7.7 45.8
16:00 1010 29.83 839 24.78 21.3 70.3 40 7.3 45.1
16:05 1010 29.83 839 24.78 21 69.7 42 7.8 46.1
16:10 1010 29.83 839 24.78 21.1 69.9 44 8.7 47.6
16:15 1010 29.83 839 24.78 21.4 70.5 43 8.5 47.4
16:20 1009 29.8 839 24.78 21.7 71 42 8.5 47.3
16:25 1009 29.8 838 24.75 21.8 71.2 43 8.6 47.6
16:30 1009 29.8 838 24.75 21.7 71.1 41 8.2 46.8
16:35 1009 29.8 838 24.75 21.6 70.9 40 7.6 45.7
16:40 1009 29.8 838 24.75 21.4 70.6 40 7.5 45.5
16:45 1009 29.8 838 24.75 20.9 69.7 42 7.6 45.8
16:50 1009 29.8 838 24.75 20.5 68.9 41 6.8 44.3
16:55 1009 29.8 838 24.75 20.5 69 40 6.6 43.9
17:00 1009 29.8 838 24.75 20.8 69.4 39 6.7 44
17:05 1009 29.8 838 24.75 20.6 69 45 8.3 46.9
17:10 1009 29.8 838 24.75 20.3 68.5 41 6.8 44.2
17:15 1009 29.8 838 24.75 20.1 68.1 44 7.4 45.4
17:20 1009 29.8 838 24.75 19.7 67.4 46 7.8 46
17:25 1009 29.8 838 24.75 19.6 67.2 43 6.8 44.2
17:30 1009 29.8 838 24.75 19.5 67.1 42 6.4 43.6
17:35 1009 29.8 838 24.75 19.6 67.3 42 6.6 43.8
17:40 1009 29.8 838 24.75 20 68 41 6.6 43.9
17:45 1009 29.8 838 24.75 20.2 68.3 39 6.1 42.9
17:50 1009 29.8 838 24.75 20.5 68.8 38 5.9 42.7
17:55 1009 29.8 838 24.75 20.8 69.4 39 6.4 43.5
18:00 1009 29.8 838 24.75 20.9 69.6 39 6.5 43.8
18:05 1009 29.8 838 24.75 20.9 69.7 37 5.9 42.7
18:10 1009 29.8 838 24.75 21.2 70.1 34 4.9 40.9
18:15 1009 29.8 838 24.75 21.1 70 34 5 40.9
18:20 1009 29.8 838 24.75 21.1 69.9 35 5 41
18:25 1009 29.8 838 24.75 21.3 70.3 34 5.1 41.2
18:30 1009 29.8 838 24.75 21.4 70.5 34 5 41
18:35 1009 29.8 838 24.75 21.6 70.8 33 4.9 40.8
18:40 1009 29.8 838 24.75 21.5 70.8 33 4.8 40.7
18:45 1009 29.8 838 24.75 21.5 70.6 33 4.7 40.5
18:50 1009 29.8 839 24.78 21.3 70.3 36 5.9 42.7
18:55 1010 29.83 839 24.78 20.4 68.7 46 8.5 47.3
19:00 1009 29.8 839 24.78 19.6 67.2 50 9.1 48.3
19:05 1010 29.83 839 24.78 19.2 66.5 51 8.9 48
19:10 1010 29.83 839 24.78 19.1 66.3 49 8.2 46.8
19:15 1010 29.83 839 24.78 19 66.2 50 8.4 47.2
19:20 1010 29.83 839 24.78 19.2 66.5 49 8.3 47
19:25 1010 29.83 839 24.78 19 66.1 54 9.6 49.2
19:30 1010 29.83 839 24.78 18.5 65.4 46 6.8 44.2
19:35 1010 29.83 840 24.81 18.2 64.8 42 5.4 41.7
19:40 1010 29.83 840 24.81 18.1 64.6 42 5.3 41.5
19:45 1010 29.83 840 24.81 17.9 64.3 44 5.6 42
19:50 1010 29.83 840 24.81 17.6 63.6 47 6.2 43.1
19:55 1010 29.83 840 24.81 17.4 63.2 46 5.8 42.5
20:00 1010 29.83 840 24.81 17.5 63.4 46 5.8 42.4
20:05 1010 29.83 840 24.81 17.4 63.3 46 5.7 42.3
20:10 1010 29.83 840 24.81 17.7 63.9 42 4.9 40.8
20:15 1011 29.85 840 24.81 18 64.3 42 5.1 41.2
20:20 1011 29.85 840 24.81 18 64.4 42 5 41
20:25 1011 29.85 840 24.81 18 64.5 41 4.7 40.4
20:30 1011 29.85 840 24.81 18.1 64.7 39 4 39.2
20:35 1011 29.85 840 24.81 18.2 64.7 39 4.2 39.6
20:40 1011 29.85 840 24.81 18.1 64.6 39 4 39.1
20:45 1011 29.85 840 24.81 18.2 64.7 38 3.9 38.9
20:50 1010 29.83 840 24.81 18.2 64.8 40 4.5 40
20:55 1010 29.83 840 24.81 18 64.4 42 5 41
21:00 1010 29.83 840 24.81 17.4 63.3 44 5.3 41.5
21:05 1010 29.83 839 24.78 17.2 62.9 44 4.9 40.8
21:10 1010 29.83 839 24.78 17.2 62.9 44 5 41.1
21:15 1010 29.83 839 24.78 17.5 63.5 43 4.7 40.5
21:20 1010 29.83 839 24.78 17.8 64 41 4.6 40.3
21:25 1010 29.83 839 24.78 17.8 64 42 4.9 40.8
21:30 1010 29.83 839 24.78 17.6 63.7 42 4.6 40.2
21:35 1010 29.83 839 24.78 17.6 63.8 41 4.2 39.6
21:40 1010 29.83 839 24.78 17.7 63.8 40 4.1 39.4
21:45 1010 29.83 839 24.78 17.8 64 43 5.1 41.2
21:50 1010 29.83 839 24.78 17.5 63.4 46 5.8 42.4
21:55 1010 29.83 839 24.78 17.1 62.7 41 3.7 38.7
22:00 1010 29.83 839 24.78 17.4 63.4 46 5.9 42.6
22:05 1010 29.83 839 24.78 16.8 62.2 49 6.2 43.2
22:10 1010 29.83 839 24.78 16.4 61.4 50 6 42.9
22:15 1010 29.83 839 24.78 16.3 61.3 52 6.4 43.5
22:20 1010 29.83 839 24.78 16.2 61.2 52 6.3 43.4
22:25 1010 29.83 839 24.78 16.1 60.9 52 6.3 43.4
22:30 1010 29.83 839 24.78 15.9 60.6 52 6.2 43.1
22:35 1010 29.83 839 24.78 15.9 60.7 52 6.3 43.3
22:40 1010 29.83 839 24.78 15.8 60.4 53 6.4 43.6
22:45 1010 29.83 839 24.78 15.3 59.5 55 6.5 43.7
22:50 1010 29.83 839 24.78 15.3 59.6 54 6.1 43
22:55 1010 29.83 839 24.78 15.3 59.6 56 6.6 43.9
23:00 1010 29.83 839 24.78 14.8 58.7 57 6.4 43.5
23:05 1010 29.83 839 24.78 14.8 58.7 56 6.2 43.1
23:10 1010 29.83 839 24.78 15.1 59.1 55 6.1 43
23:15 1010 29.83 839 24.78 15.2 59.3 55 6.3 43.3
23:20 1010 29.83 839 24.78 15.3 59.6 53 5.8 42.5
23:25 1010 29.83 839 24.78 15.5 59.8 54 6.4 43.5
23:30 1010 29.83 839 24.78 15.5 59.9 54 6.2 43.2
23:35 1010 29.83 839 24.78 15.6 60.1 55 6.7 44.1
23:40 1010 29.83 839 24.78 15.4 59.8 57 7 44.5
23:45 1010 29.83 839 24.78 15.3 59.5 58 7.1 44.7
23:50 1010 29.83 839 24.78 15.2 59.3 58 7 44.5
23:55 1010 29.83 839 24.78 15.1 59.3 57 6.8 44.2
24:00 1010 29.83 839 24.78 15.2 59.4 58 7 44.6